AirNav   Pilot Hours Calculator
 
 1267 users online  

7MN1 Regions Hospital Heliport
St Paul, Minnesota, USA

GOING TO ST PAUL?


FAA INFORMATION EFFECTIVE 22 APRIL 2021

Location

FAA Identifier: 7MN1
Lat/Long: 44-57-20.1900N 093-05-34.9200W
44-57.336500N 093-05.582000W
44.9556083,-93.0930333
(estimated)
Elevation: 780 ft. / 238 m (estimated)
Variation: 03E (1985)
Time zone: UTC -5 (UTC -6 during Standard Time)
Zip code: 55101

Heliport Operations

Heliport use: Private use, MEDICAL USE.
Activation date: 11/1977
Control tower: no
ARTCC: MINNEAPOLIS CENTER
FSS: PRINCETON FLIGHT SERVICE STATION
Attendance: CONTINUOUS
Wind indicator: no
Segmented circle: no
Beacon: white-green-yellow (heliport)
Operates sunset to sunrise.

Heliport Communications

WX ASOS at STP (1.9 nm SE): 118.35 (651-312-8888)
WX AWOS-3 at SGS (6 nm SE): 119.425 (651-457-8120)
WX ASOS at MSP (7 nm SW): 135.35 (612-713-4174)
WX AWOS-3 at 21D (10 nm E): 120.075 (651-779-5949)
WX AWOS-3 at ANE (12 nm NW): 120.625 (763-780-9025)
WX ASOS at MIC (13 nm NW): 125.7 (763-531-2343)
WX ASOS at FCM (17 nm SW): 124.9 (952-941-4156)

Nearby radio navigation aids

VOR radial/distance  VOR name  Freq  Var
MSPr058/7.1MINNEAPOLIS VOR/DME115.3002E
GEPr128/16.5GOPHER VORTAC117.3006E
FCMr061/16.8FLYING CLOUD VOR/DME117.7001E
FGTr005/19.8FARMINGTON VORTAC115.7006E

Heliport Services

Runway Information

Helipad H1

Dimensions: 40 x 50 ft. / 12 x 15 m
Surface: asphalt/concrete
Runway edge lights: PERI
Latitude: 44-57.336500N
Longitude: 093-05.582000W
Elevation: 780.0 ft.
Traffic pattern: leftleft

Heliport Ownership and Management from official FAA records

Ownership: Publicly-owned
Owner: REGIONS HOSPITAL
640 JACKSON ST
ST PAUL, MN 55101
Phone 651-254-3456
Manager: RICK HUSTON
640 JACKSON ST
ST PAUL, MN 55101
Phone (651) 254-3629

Additional Remarks

FOR CD CTC MINNEAPOLIS ARTCC AT 651-463-5588.

Instrument Procedures

There are no published instrument procedures at 7MN1.

Some nearby airports with instrument procedures:

KSTP - St Paul Downtown Airport Holman Field (2 nm SE)
KSGS - South St Paul Municipal Airport-Richard E Fleming Field (6 nm SE)
KMSP - Minneapolis-St Paul International/Wold-Chamberlain Airport (7 nm SW)
21D - Lake Elmo Airport (10 nm E)
KANE - Anoka County-Blaine Airport (Janes Field) (12 nm NW)
KMIC - Crystal Airport (13 nm NW)
KFCM - Flying Cloud Airport (17 nm SW)
 
Loc | Ops | Rwys | IFR | FBO | Links
Com | Nav | Svcs | Stats | Notes
Area around 7MN1 (Regions Hospital Heliport)
 
Road maps at: MapQuest Bing Google
 
Aerial photo
No photo
 
Sectional chart

 
Airport distance calculator
Flying to Regions Hospital Heliport? Find the distance to fly.

From to 7MN1

Sunrise and sunset
Times for 05-May-2021
 Local
(UTC-5)
 Zulu
(UTC)
Morning civil twilight05:2410:24
Sunrise05:5710:57
Sunset20:2101:21
Evening civil twilight20:5401:54

Current date and time
Zulu (UTC)  05-May-2021 22:53:17
Local (UTC-5)  05-May-2021 17:53:17
 
METAR
KSTP 
2nm SE 
052153Z 35004KT 10SM -RA OVC041 09/03 A3019 RMK AO2 SLP227 P0001 T00890033
KSGS 
7nm S 
052235Z AUTO 00000KT 10SM -RA CLR 08/04 A3018 RMK AO2 P0001 T00830039
KMSP 
7nm SW 
052153Z 02005KT 8SM -RA BKN039 OVC048 08/04 A3019 RMK AO2 SLP227 P0001 T00830039
K21D 
10nm E 
052209Z AUTO 23006KT 10SM -DZ OVC039 09/02 A3019 RMK AO2
KANE 
12nm NW 
052145Z 25007KT 10SM SCT045 OVC080 09/02 A3018
KMIC 
13nm NW 
052153Z 29004KT 10SM -RA OVC046 09/03 A3018 RMK AO2 RAB2058 SLP225 P0000 T00890028
KFCM 
17nm SW 
052153Z 03004KT 7SM -RA OVC043 08/04 A3017 RMK AO2 SLP223 P0002 T00830044
TAF
KMSP 
7nm SW 
052051Z 0521/0624 34007KT P6SM -SHRA BKN035 OVC050 FM060300 33004KT P6SM BKN050 FM060900 31005KT P6SM FEW080 FM061700 31013G22KT P6SM BKN080
NOTAMs
Click for the latest NOTAMs
NOTAMs are issued by the DoD/FAA and will open in a separate window not controlled by AirNav.

 

 
 

Would you like to see your business listed on this page?

 If your business provides an interesting product or service to pilots, flight crews, aircraft, or users of the Regions Hospital Heliport, you should consider listing it here.  To start the listing process, click on the button below
 
Add a business
 

Other Pages about Regions Hospital Heliport

Update a link
 
Copyright © AirNav, LLC. All rights reserved. Privacy Policy  Contact